createdAt,value
2018-11-14T00:00:25.379Z,9.38
2018-11-14T00:02:54.447Z,9.41
2018-11-14T00:05:23.409Z,9.38
2018-11-14T00:07:52.435Z,9.35
2018-11-14T00:10:21.379Z,9.39
2018-11-14T00:12:50.348Z,9.41
2018-11-14T00:15:20.713Z,9.37
2018-11-14T00:17:50.449Z,9.35
2018-11-14T00:20:19.588Z,9.37
2018-11-14T00:22:49.476Z,9.40
2018-11-14T00:25:18.590Z,9.35
2018-11-14T00:27:47.598Z,9.28
2018-11-14T00:30:20.544Z,9.30
2018-11-14T00:32:49.537Z,9.37
2018-11-14T00:35:18.490Z,9.35
2018-11-14T00:37:47.947Z,9.38
2018-11-14T00:40:18.075Z,9.35
2018-11-14T00:42:47.621Z,9.29
2018-11-14T00:45:18.106Z,9.36
2018-11-14T00:47:47.917Z,9.37
2018-11-14T00:50:17.651Z,9.38
2018-11-14T00:52:46.967Z,9.26
2018-11-14T00:55:17.621Z,9.28
2018-11-14T00:57:47.625Z,9.33
2018-11-14T01:00:21.482Z,9.39
2018-11-14T01:02:50.501Z,9.39
2018-11-14T01:05:19.859Z,9.39
2018-11-14T01:07:48.787Z,9.33
2018-11-14T01:10:19.126Z,9.33
2018-11-14T01:12:48.615Z,9.40
2018-11-14T01:15:18.883Z,9.37
2018-11-14T01:17:47.795Z,9.34
2018-11-14T01:20:20.724Z,9.46
2018-11-14T01:22:49.959Z,9.32
2018-11-14T01:25:19.497Z,9.34
2018-11-14T01:27:48.539Z,9.45
2018-11-14T01:30:19.332Z,9.38
2018-11-14T01:32:48.720Z,9.41
2018-11-14T01:35:18.043Z,9.39
2018-11-14T01:37:47.014Z,9.35
2018-11-14T01:40:18.610Z,9.34
2018-11-14T01:42:50.720Z,9.27
2018-11-14T01:45:19.814Z,9.39
2018-11-14T01:47:48.852Z,9.43
2018-11-14T01:50:18.016Z,9.36
2018-11-14T01:52:46.898Z,9.33
2018-11-14T01:55:17.043Z,9.31
2018-11-14T01:57:45.978Z,9.25
2018-11-14T02:00:19.089Z,9.30
2018-11-14T02:02:48.196Z,9.18
2018-11-14T02:05:17.110Z,9.24
2018-11-14T02:07:47.519Z,9.23
2018-11-14T02:10:17.716Z,9.21
2018-11-14T02:12:47.023Z,9.16
2018-11-14T02:15:20.826Z,9.28
2018-11-14T02:17:49.827Z,9.28
2018-11-14T02:20:18.736Z,9.24
2018-11-14T02:22:47.951Z,9.27
2018-11-14T02:25:17.426Z,9.23
2018-11-14T02:27:46.501Z,9.22
2018-11-14T02:30:17.895Z,9.25
2018-11-14T02:32:46.851Z,9.28
2018-11-14T02:35:15.821Z,9.16
2018-11-14T02:37:45.245Z,9.20
2018-11-14T02:40:17.427Z,9.19
2018-11-14T02:42:46.443Z,9.21
2018-11-14T02:45:15.713Z,9.21
2018-11-14T02:47:44.827Z,9.07
2018-11-14T02:50:15.240Z,9.11
2018-11-14T02:52:45.288Z,9.08
2018-11-14T02:55:15.494Z,9.05
2018-11-14T02:57:44.915Z,9.16
2018-11-14T03:00:18.674Z,9.26
2018-11-14T03:02:47.724Z,9.23
2018-11-14T03:05:16.663Z,9.20
2018-11-14T03:07:45.671Z,9.09
2018-11-14T03:10:17.459Z,9.09
2018-11-14T03:12:46.492Z,9.09
2018-11-14T03:15:17.990Z,9.04
2018-11-14T03:17:46.903Z,9.06
2018-11-14T03:20:17.369Z,9.09
2018-11-14T03:22:46.360Z,9.10
2018-11-14T03:25:15.730Z,9.08
2018-11-14T03:27:44.771Z,9.13
2018-11-14T03:30:18.241Z,9.11
2018-11-14T03:32:47.553Z,9.11
2018-11-14T03:35:16.568Z,9.02
2018-11-14T03:37:45.534Z,8.99
2018-11-14T03:40:16.487Z,9.08
2018-11-14T03:42:45.508Z,9.10
2018-11-14T03:45:15.067Z,9.10
2018-11-14T03:47:44.150Z,9.11
2018-11-14T03:50:13.155Z,9.09
2018-11-14T03:52:42.094Z,9.08
2018-11-14T03:55:11.096Z,9.06
2018-11-14T03:57:39.980Z,9.08
2018-11-14T04:00:13.246Z,9.02
2018-11-14T04:02:42.555Z,9.11
2018-11-14T04:05:11.308Z,9.08
2018-11-14T04:07:40.951Z,9.08
2018-11-14T04:10:11.637Z,8.92
2018-11-14T04:12:40.944Z,9.06
2018-11-14T04:15:11.468Z,9.10
2018-11-14T04:17:40.622Z,9.25
2018-11-14T04:20:12.054Z,9.29
2018-11-14T04:22:41.051Z,9.26
2018-11-14T04:25:12.316Z,9.14
2018-11-14T04:27:41.768Z,9.16
2018-11-14T04:30:13.177Z,9.06
2018-11-14T04:32:43.112Z,9.15
2018-11-14T04:35:13.079Z,9.09
2018-11-14T04:37:42.045Z,9.13
2018-11-14T04:40:13.148Z,9.25
2018-11-14T04:42:42.060Z,9.20
2018-11-14T04:45:14.093Z,9.11
2018-11-14T04:47:43.628Z,9.16
2018-11-14T04:50:16.021Z,9.12
2018-11-14T04:52:45.906Z,9.14
2018-11-14T04:55:16.216Z,9.21
2018-11-14T04:57:45.534Z,9.25
2018-11-14T05:00:15.463Z,9.25
2018-11-14T05:02:45.354Z,9.29
2018-11-14T05:05:15.904Z,9.28
2018-11-14T05:07:44.810Z,9.25
2018-11-14T05:10:17.433Z,9.25
2018-11-14T05:12:46.954Z,9.31
2018-11-14T05:15:18.411Z,9.32
2018-11-14T05:17:47.723Z,9.28
2018-11-14T05:20:17.666Z,9.23
2018-11-14T05:22:46.954Z,9.34
2018-11-14T05:25:15.903Z,9.33
2018-11-14T05:27:44.831Z,9.36
2018-11-14T05:30:15.199Z,9.37
2018-11-14T05:32:45.306Z,9.26
2018-11-14T05:35:14.688Z,9.34
2018-11-14T05:37:43.695Z,9.30
2018-11-14T05:40:21.085Z,9.33
2018-11-14T05:42:50.675Z,9.39
2018-11-14T05:45:21.267Z,9.45
2018-11-14T05:47:50.220Z,9.35
2018-11-14T05:50:20.180Z,9.31
2018-11-14T05:52:49.216Z,9.39
2018-11-14T05:55:18.435Z,9.41
2018-11-14T05:57:47.532Z,9.43
2018-11-14T06:00:24.064Z,9.34
2018-11-14T06:02:53.008Z,9.40
2018-11-14T06:05:21.944Z,9.34
2018-11-14T06:07:52.148Z,9.34
2018-11-14T06:10:21.022Z,9.39
2018-11-14T06:12:49.986Z,9.42
2018-11-14T06:15:19.994Z,9.48
2018-11-14T06:17:49.799Z,9.44
2018-11-14T06:20:20.140Z,9.59
2018-11-14T06:22:50.025Z,9.61
2018-11-14T06:25:26.904Z,9.57
2018-11-14T06:27:56.741Z,9.64
2018-11-14T06:30:26.067Z,9.69
2018-11-14T06:32:55.721Z,9.86
2018-11-14T06:35:24.881Z,9.85
2018-11-14T06:37:54.279Z,9.90
2018-11-14T06:40:23.427Z,9.83
2018-11-14T06:42:52.397Z,10.10
2018-11-14T06:45:22.832Z,10.18
2018-11-14T06:47:53.092Z,10.22
2018-11-14T06:50:22.128Z,10.26
2018-11-14T06:52:52.672Z,10.45
2018-11-14T06:55:22.120Z,10.68
2018-11-14T06:57:51.125Z,10.59
2018-11-14T07:00:25.206Z,10.88
2018-11-14T07:02:54.613Z,10.98
2018-11-14T07:05:23.584Z,11.10
2018-11-14T07:07:52.631Z,10.83
2018-11-14T07:10:22.989Z,10.87
2018-11-14T07:12:52.051Z,10.78
2018-11-14T07:15:22.328Z,10.69
2018-11-14T07:17:52.378Z,10.72
2018-11-14T07:20:24.703Z,10.64
2018-11-14T07:22:53.637Z,10.71
2018-11-14T07:25:22.667Z,10.74
2018-11-14T07:27:51.707Z,10.69
2018-11-14T07:30:25.790Z,10.86
2018-11-14T07:32:57.819Z,10.86
2018-11-14T07:35:26.790Z,10.76
2018-11-14T07:39:02.523Z,11.17
2018-11-14T07:41:33.809Z,11.50
2018-11-14T07:44:04.461Z,11.63
2018-11-14T07:46:34.281Z,11.48
2018-11-14T07:49:03.518Z,11.64
2018-11-14T07:51:32.543Z,12.03
2018-11-14T07:54:01.668Z,11.92
2018-11-14T07:56:30.660Z,12.07
2018-11-14T07:58:59.651Z,12.29
2018-11-14T08:01:28.697Z,12.41
2018-11-14T08:03:57.746Z,12.39
2018-11-14T08:06:26.703Z,12.33
2018-11-14T08:08:55.705Z,12.10
2018-11-14T08:11:24.720Z,11.99
2018-11-14T08:13:53.629Z,11.51
2018-11-14T08:16:22.543Z,11.72
2018-11-14T08:18:51.639Z,11.60
2018-11-14T08:21:20.777Z,11.87
2018-11-14T08:23:49.824Z,11.49
2018-11-14T08:26:18.835Z,11.39
2018-11-14T08:28:47.764Z,11.56
2018-11-14T08:31:16.770Z,11.63
2018-11-14T08:33:47.024Z,11.79
2018-11-14T08:36:15.992Z,12.45
2018-11-14T08:38:45.044Z,12.17
2018-11-14T08:41:14.064Z,12.32
2018-11-14T08:43:43.108Z,12.64
2018-11-14T08:46:12.162Z,12.90
2018-11-14T08:48:41.106Z,12.83
2018-11-14T08:51:10.128Z,12.75
2018-11-14T08:53:39.084Z,12.64
2018-11-14T08:56:08.140Z,12.28
2018-11-14T08:58:37.291Z,12.08
2018-11-14T09:01:06.594Z,11.96
2018-11-14T09:03:35.611Z,11.71
2018-11-14T09:06:04.683Z,11.89
2018-11-14T09:08:33.622Z,12.19
2018-11-14T09:11:02.672Z,12.20
2018-11-14T09:13:32.924Z,11.89
2018-11-14T09:16:01.912Z,12.04
2018-11-14T09:18:30.843Z,11.78
2018-11-14T09:20:59.812Z,12.01
2018-11-14T09:23:28.775Z,12.19
2018-11-14T09:25:57.726Z,12.71
2018-11-14T09:28:26.756Z,13.31
2018-11-14T09:30:55.716Z,13.47
2018-11-14T09:33:24.642Z,13.80
2018-11-14T09:35:53.563Z,13.24
2018-11-14T09:38:22.552Z,13.43
2018-11-14T09:40:51.633Z,13.60
2018-11-14T09:43:20.598Z,13.82
2018-11-14T09:45:49.506Z,13.76
2018-11-14T09:48:18.441Z,13.37
2018-11-14T09:50:47.679Z,13.39
2018-11-14T09:53:16.659Z,13.85
2018-11-14T09:55:45.702Z,13.87
2018-11-14T09:58:14.939Z,13.74
2018-11-14T10:00:43.929Z,13.79
2018-11-14T10:03:17.311Z,13.53
2018-11-14T10:05:47.508Z,13.27
2018-11-14T10:08:16.552Z,13.72
2018-11-14T10:10:45.637Z,13.94
2018-11-14T10:13:14.776Z,13.40
2018-11-14T10:15:43.890Z,13.58
2018-11-14T10:18:12.762Z,13.21
2018-11-14T10:20:41.739Z,13.53
2018-11-14T10:23:10.881Z,13.70
2018-11-14T10:25:39.900Z,14.01
2018-11-14T10:28:08.763Z,14.13
2018-11-14T10:30:37.851Z,14.34
2018-11-14T10:33:06.826Z,14.23
2018-11-14T10:35:35.845Z,14.31
2018-11-14T10:38:05.003Z,14.33
2018-11-14T10:40:33.876Z,14.13
2018-11-14T10:43:02.984Z,14.27
2018-11-14T10:45:32.156Z,14.21
2018-11-14T10:48:02.429Z,14.26
2018-11-14T10:50:31.400Z,14.41
2018-11-14T10:53:00.292Z,14.75
2018-11-14T10:55:29.217Z,14.65
2018-11-14T10:57:58.188Z,14.95
2018-11-14T11:00:32.657Z,15.10
2018-11-14T11:03:07.580Z,14.76
2018-11-14T11:05:44.415Z,14.89
2018-11-14T11:08:19.777Z,14.22
2018-11-14T11:10:53.848Z,14.02
2018-11-14T11:13:27.719Z,14.17
2018-11-14T11:16:01.643Z,14.41
2018-11-14T11:18:32.955Z,14.63
2018-11-14T11:21:02.328Z,14.88
2018-11-14T11:23:31.315Z,14.24
2018-11-14T11:26:00.215Z,13.79
2018-11-14T11:28:29.197Z,13.90
2018-11-14T11:30:58.074Z,14.14
2018-11-14T11:33:26.961Z,14.60
2018-11-14T11:35:55.968Z,14.50
2018-11-14T11:38:25.076Z,14.17
2018-11-14T11:40:53.871Z,14.36
2018-11-14T11:43:22.829Z,14.06
2018-11-14T11:45:51.926Z,13.92
2018-11-14T11:48:20.711Z,14.16
2018-11-14T11:50:49.608Z,14.27
2018-11-14T11:53:18.488Z,14.39
2018-11-14T11:55:47.609Z,14.32
2018-11-14T11:58:16.491Z,14.50
2018-11-14T12:00:45.508Z,14.58
2018-11-14T12:03:14.450Z,14.45
2018-11-14T12:05:43.569Z,14.77
2018-11-14T12:08:12.552Z,14.57
2018-11-14T12:10:42.937Z,14.60
2018-11-14T12:13:12.023Z,14.63
2018-11-14T12:15:40.935Z,14.65
2018-11-14T12:18:09.848Z,14.55
2018-11-14T12:20:40.007Z,13.67
2018-11-14T12:23:08.958Z,13.25
2018-11-14T12:25:37.833Z,13.91
2018-11-14T12:28:06.728Z,14.33
2018-11-14T12:30:35.707Z,14.46
2018-11-14T12:33:04.651Z,14.58
2018-11-14T12:35:33.593Z,14.70
2018-11-14T12:38:02.604Z,14.86
2018-11-14T12:40:31.552Z,14.99
2018-11-14T12:43:01.827Z,14.87
2018-11-14T12:45:30.715Z,14.86
2018-11-14T12:47:59.584Z,14.58
2018-11-14T12:50:28.603Z,14.46
2018-11-14T12:52:57.500Z,14.45
2018-11-14T12:55:26.474Z,14.19
2018-11-14T12:57:55.369Z,14.22
2018-11-14T13:00:24.285Z,14.29
2018-11-14T13:02:53.260Z,14.17
2018-11-14T13:05:22.458Z,14.11
2018-11-14T13:07:54.172Z,14.00
2018-11-14T13:10:24.441Z,14.07
2018-11-14T13:12:53.390Z,14.02
2018-11-14T13:15:22.323Z,14.01
2018-11-14T13:17:51.297Z,13.91
2018-11-14T13:20:22.715Z,13.57
2018-11-14T13:22:51.769Z,13.79
2018-11-14T13:25:20.891Z,13.78
2018-11-14T13:27:50.093Z,13.79
2018-11-14T13:30:20.620Z,13.69
2018-11-14T13:32:51.365Z,13.55
2018-11-14T13:35:21.286Z,13.69
2018-11-14T13:37:50.891Z,13.63
2018-11-14T13:40:19.906Z,13.53
2018-11-14T13:42:48.910Z,13.54
2018-11-14T13:45:19.385Z,13.51
2018-11-14T13:47:48.456Z,13.45
2018-11-14T13:50:19.708Z,13.40
2018-11-14T13:52:50.052Z,13.28
2018-11-14T13:55:19.792Z,13.29
2018-11-14T13:57:50.073Z,13.28
2018-11-14T14:00:20.305Z,13.22
2018-11-14T14:02:50.381Z,13.12
2018-11-14T14:05:20.744Z,13.09
2018-11-14T14:07:49.836Z,13.06
2018-11-14T14:10:19.008Z,12.97
2018-11-14T14:12:50.208Z,12.95
2018-11-14T14:15:22.459Z,12.92
2018-11-14T14:17:51.769Z,12.92
2018-11-14T14:20:21.326Z,12.97
2018-11-14T14:22:50.351Z,12.99
2018-11-14T14:25:20.983Z,12.93
2018-11-14T14:27:49.935Z,12.85
2018-11-14T14:30:20.273Z,12.87
2018-11-14T14:32:49.611Z,12.79
2018-11-14T14:35:19.792Z,12.81
2018-11-14T14:37:48.778Z,12.81
2018-11-14T14:40:19.331Z,12.74
2018-11-14T14:42:48.485Z,12.81
2018-11-14T14:45:20.408Z,12.68
2018-11-14T14:47:49.371Z,12.72
2018-11-14T14:50:19.025Z,12.72
2018-11-14T14:52:48.119Z,12.65
2018-11-14T14:55:19.844Z,12.66
2018-11-14T14:57:49.200Z,12.68
2018-11-14T15:00:22.471Z,12.68
2018-11-14T15:02:51.705Z,12.66
2018-11-14T15:05:20.789Z,12.68
2018-11-14T15:07:49.775Z,12.72
2018-11-14T15:10:20.189Z,12.68
2018-11-14T15:12:49.283Z,12.70
2018-11-14T15:15:18.734Z,12.69
2018-11-14T15:17:47.764Z,12.70
2018-11-14T15:20:19.232Z,12.73
2018-11-14T15:22:48.322Z,12.73
2018-11-14T15:25:19.005Z,12.68
2018-11-14T15:27:48.646Z,12.68
2018-11-14T15:30:22.376Z,12.71
2018-11-14T15:32:51.483Z,12.61
2018-11-14T15:35:20.546Z,12.63
2018-11-14T15:37:49.684Z,12.66
2018-11-14T15:40:19.825Z,12.68
2018-11-14T15:42:48.987Z,12.68
2018-11-14T15:45:19.660Z,12.51
2018-11-14T15:47:48.715Z,12.56
2018-11-14T15:50:19.042Z,12.58
2018-11-14T15:52:49.048Z,12.63
2018-11-14T15:55:19.124Z,12.61
2018-11-14T15:57:48.236Z,12.62
2018-11-14T16:00:23.007Z,12.67
2018-11-14T16:02:53.439Z,12.62
2018-11-14T16:05:23.465Z,12.68
2018-11-14T16:07:53.562Z,12.70
2018-11-14T16:10:23.708Z,12.54
2018-11-14T16:12:54.003Z,12.61
2018-11-14T16:15:27.010Z,12.59
2018-11-14T16:17:56.163Z,12.53
2018-11-14T16:20:26.074Z,12.55
2018-11-14T16:22:55.155Z,12.59
2018-11-14T16:25:26.219Z,12.38
2018-11-14T16:27:56.486Z,12.33
2018-11-14T16:30:27.911Z,12.38
2018-11-14T16:32:58.347Z,12.16
2018-11-14T16:35:27.432Z,12.20
2018-11-14T16:37:56.610Z,12.07
2018-11-14T16:40:27.924Z,11.96
2018-11-14T16:42:57.919Z,12.09
2018-11-14T16:45:27.107Z,12.20
2018-11-14T16:47:56.091Z,12.16
2018-11-14T16:50:25.429Z,12.05
2018-11-14T16:52:54.575Z,12.03
2018-11-14T16:55:23.965Z,12.05
2018-11-14T16:57:53.917Z,12.06
2018-11-14T17:00:27.174Z,11.94
2018-11-14T17:02:56.360Z,11.90
2018-11-14T17:05:26.558Z,11.95
2018-11-14T17:07:55.514Z,12.04
2018-11-14T17:10:24.776Z,12.11
2018-11-14T17:12:55.255Z,12.11
2018-11-14T17:15:25.288Z,12.18
2018-11-14T17:17:54.233Z,12.22
2018-11-14T17:20:23.746Z,12.20
2018-11-14T17:22:53.693Z,12.15
2018-11-14T17:25:22.827Z,12.05
2018-11-14T17:27:51.879Z,12.13
2018-11-14T17:30:22.945Z,12.25
2018-11-14T17:32:52.267Z,11.95
2018-11-14T17:35:21.271Z,12.00
2018-11-14T17:37:51.549Z,12.13
2018-11-14T17:40:22.977Z,12.12
2018-11-14T17:42:53.900Z,12.17
2018-11-14T17:45:25.164Z,12.08
2018-11-14T17:47:54.484Z,12.04
2018-11-14T17:50:25.702Z,11.87
2018-11-14T17:52:55.390Z,11.87
2018-11-14T17:55:24.743Z,11.95
2018-11-14T17:57:53.771Z,11.98
2018-11-14T18:00:24.153Z,11.87
2018-11-14T18:02:53.224Z,12.01
2018-11-14T18:05:23.619Z,11.72
2018-11-14T18:07:53.389Z,11.68
2018-11-14T18:10:23.691Z,11.43
2018-11-14T18:12:53.873Z,11.40
2018-11-14T18:15:22.900Z,11.41
2018-11-14T18:17:52.992Z,11.54
2018-11-14T18:20:24.191Z,11.65
2018-11-14T18:22:53.835Z,11.60
2018-11-14T18:25:22.844Z,11.66
2018-11-14T18:27:53.155Z,11.69
2018-11-14T18:30:23.167Z,11.64
2018-11-14T18:32:52.920Z,11.76
2018-11-14T18:35:22.583Z,11.76
2018-11-14T18:37:53.961Z,11.79
2018-11-14T18:40:24.533Z,11.66
2018-11-14T18:42:53.460Z,11.81
2018-11-14T18:45:24.992Z,11.82
2018-11-14T18:47:54.718Z,11.75
2018-11-14T18:50:24.344Z,11.82
2018-11-14T18:52:53.739Z,11.81
2018-11-14T18:55:25.179Z,11.92
2018-11-14T18:57:54.242Z,11.81
2018-11-14T19:00:25.462Z,11.53
2018-11-14T19:02:54.422Z,11.21
2018-11-14T19:05:23.515Z,11.40
2018-11-14T19:07:52.452Z,11.57
2018-11-14T19:10:22.640Z,11.66
2018-11-14T19:12:52.336Z,11.65
2018-11-14T19:15:23.466Z,11.71
2018-11-14T19:17:52.535Z,11.53
2018-11-14T19:20:22.705Z,11.63
2018-11-14T19:22:52.090Z,11.71
2018-11-14T19:25:22.340Z,11.69
2018-11-14T19:27:51.356Z,11.77
2018-11-14T19:30:29.098Z,11.77
2018-11-14T19:32:58.645Z,11.86
2018-11-14T19:35:28.897Z,11.68
2018-11-14T19:37:58.328Z,11.66
2018-11-14T19:40:31.647Z,11.66
2018-11-14T19:43:02.028Z,11.58
2018-11-14T19:45:33.675Z,11.48
2018-11-14T19:48:02.686Z,11.57
2018-11-14T19:50:31.727Z,11.64
2018-11-14T19:53:00.816Z,11.63
2018-11-14T19:55:30.233Z,11.54
2018-11-14T19:58:00.376Z,11.61
2018-11-14T20:00:30.584Z,11.65
2018-11-14T20:02:59.622Z,11.54
2018-11-14T20:05:28.625Z,11.55
2018-11-14T20:07:57.597Z,11.50
2018-11-14T20:10:31.780Z,11.51
2018-11-14T20:13:00.789Z,11.43
2018-11-14T20:15:33.417Z,11.26
2018-11-14T20:18:02.436Z,11.20
2018-11-14T20:20:33.959Z,11.20
2018-11-14T20:23:03.010Z,10.92
2018-11-14T20:25:31.977Z,10.70
2018-11-14T20:28:00.962Z,10.60
2018-11-14T20:30:31.399Z,10.61
2018-11-14T20:33:09.748Z,10.81
2018-11-14T20:35:38.738Z,10.96
2018-11-14T20:38:07.729Z,11.07
2018-11-14T20:40:40.395Z,11.05
2018-11-14T20:43:09.286Z,10.69
2018-11-14T20:45:38.304Z,10.38
2018-11-14T20:48:07.800Z,10.30
2018-11-14T20:50:36.848Z,10.27
2018-11-14T20:53:08.196Z,10.18
2018-11-14T20:55:37.707Z,10.27
2018-11-14T20:58:06.681Z,10.19
2018-11-14T21:00:37.685Z,10.23
2018-11-14T21:03:07.476Z,10.23
2018-11-14T21:05:36.572Z,10.24
2018-11-14T21:08:06.033Z,10.28
2018-11-14T21:10:35.516Z,10.25
2018-11-14T21:13:04.970Z,10.24
2018-11-14T21:15:35.775Z,10.28
2018-11-14T21:18:04.999Z,10.31
2018-11-14T21:20:33.871Z,10.28
2018-11-14T21:23:02.938Z,10.24
2018-11-14T21:25:38.255Z,10.25
2018-11-14T21:28:07.266Z,10.24
2018-11-14T21:30:36.175Z,10.22
2018-11-14T21:33:05.123Z,10.18
2018-11-14T21:35:35.730Z,10.18
2018-11-14T21:38:06.187Z,10.18
2018-11-14T21:40:35.120Z,10.21
2018-11-14T21:43:04.143Z,10.19
2018-11-14T21:45:33.084Z,10.18
2018-11-14T21:48:07.009Z,10.16
2018-11-14T21:50:35.940Z,10.18
2018-11-14T21:53:05.049Z,10.22
2018-11-14T21:55:34.070Z,10.22
2018-11-14T21:58:03.145Z,10.21
2018-11-14T22:00:33.452Z,10.25
2018-11-14T22:03:02.855Z,10.25
2018-11-14T22:05:31.840Z,10.24
2018-11-14T22:08:00.895Z,10.24
2018-11-14T22:10:29.989Z,10.22
2018-11-14T22:12:59.119Z,10.23
2018-11-14T22:15:28.924Z,10.24
2018-11-14T22:17:58.035Z,10.27
2018-11-14T22:20:27.853Z,10.27
2018-11-14T22:22:56.890Z,10.25
2018-11-14T22:25:26.955Z,10.38
2018-11-14T22:27:56.046Z,10.36
2018-11-14T22:30:27.816Z,10.61
2018-11-14T22:32:56.834Z,10.64
2018-11-14T22:35:26.983Z,10.43
2018-11-14T22:37:55.825Z,10.51
2018-11-14T22:40:26.095Z,10.37
2018-11-14T22:42:55.182Z,10.31
2018-11-14T22:45:25.656Z,10.26
2018-11-14T22:47:54.745Z,10.36
2018-11-14T22:50:24.660Z,10.30
2018-11-14T22:52:54.175Z,10.29
2018-11-14T22:55:24.222Z,10.27
2018-11-14T22:57:53.676Z,10.30
2018-11-14T23:00:28.457Z,10.29
2018-11-14T23:02:59.827Z,10.27
2018-11-14T23:05:28.862Z,10.28
2018-11-14T23:07:58.662Z,10.26
2018-11-14T23:10:28.067Z,10.28
2018-11-14T23:12:57.112Z,10.34
2018-11-14T23:15:26.221Z,10.37
2018-11-14T23:17:55.272Z,10.39
2018-11-14T23:20:24.244Z,10.39
2018-11-14T23:22:53.748Z,10.23
2018-11-14T23:25:23.309Z,10.14
2018-11-14T23:27:53.346Z,10.21
2018-11-14T23:30:23.561Z,10.18
2018-11-14T23:32:53.433Z,10.24
2018-11-14T23:35:27.419Z,10.16
2018-11-14T23:37:57.869Z,10.18
2018-11-14T23:40:27.121Z,10.12
2018-11-14T23:42:56.170Z,10.13
2018-11-14T23:45:25.782Z,10.15
2018-11-14T23:47:55.048Z,10.12
2018-11-14T23:50:26.151Z,10.09
2018-11-14T23:52:56.156Z,10.07
2018-11-14T23:55:26.070Z,10.10
2018-11-14T23:57:55.133Z,10.03
